.
WxDataArchive / Data Records for 2008-04-01
2008-03-31 April 2008 2008-04-02

Data Records for Tuesday, 01 April 2008

Time	Temp	Chill	HIndex	Humid	Dewpt	 Wind 	HiWind	WindDir	Rain 	Barom 
-----	----	-----	------	-----	-----	------	------	-------	-----	----- 
00:00	58.6	58.6	58.6	91	56.0	4	10	248	0.00	29.615 
00:05	58.6	58.6	58.6	91	56.0	5	16	270	0.00	29.613 
00:10	58.6	58.6	58.6	91	56.0	5	18	292	0.00	29.597 
00:15	58.6	58.6	58.6	91	56.0	6	16	270	0.00	29.604 
00:20	58.6	58.6	58.6	92	56.3	5	12	248	0.00	29.602 
00:25	58.6	58.6	58.6	91	56.0	6	16	270	0.00	29.588 
00:30	58.6	58.6	58.6	91	56.0	5	13	292	0.00	29.575 
00:35	58.4	58.4	58.4	92	56.1	4	10	248	0.00	29.571 
00:40	58.3	58.3	58.3	92	56.0	5	12	248	0.00	29.572 
00:45	58.3	58.3	58.3	92	56.0	4	10	68	0.00	29.564 
00:50	58.3	58.3	58.3	91	55.7	5	15	45	0.00	29.557 
00:55	58.3	58.3	58.3	90	55.4	5	11	90	0.00	29.540 
01:00	58.3	58.3	58.3	90	55.4	4	9	68	0.00	29.550 
01:05	58.3	58.3	58.3	89	55.1	5	13	270	0.00	29.555 
01:10	58.3	58.3	58.3	88	54.8	5	18	270	0.00	29.557 
01:15	58.3	58.3	58.3	88	54.8	4	9	248	0.00	29.554 
01:20	58.3	58.3	58.3	88	54.8	3	11	45	0.00	29.550 
01:25	58.3	58.3	58.3	87	54.4	3	10	22	0.00	29.541 
01:30	58.3	58.3	58.3	87	54.4	3	10	135	0.00	29.546 
01:35	58.3	58.3	58.3	87	54.4	3	9	270	0.00	29.544 
01:40	58.4	58.4	58.4	85	53.9	3	9	248	0.00	29.553 
01:45	58.4	58.4	58.4	85	53.9	4	13	248	0.00	29.551 
01:50	58.6	58.6	58.6	84	53.8	4	11	248	0.00	29.553 
01:55	58.6	58.6	58.6	84	53.8	3	9	248	0.00	29.557 
02:00	58.6	58.6	58.6	84	53.8	3	10	248	0.00	29.557 
02:05	58.4	58.4	58.4	84	53.6	3	10	248	0.00	29.556 
02:10	58.6	58.6	58.6	83	53.4	4	11	248	0.00	29.562 
02:15	58.6	58.6	58.6	83	53.4	4	13	248	0.00	29.566 
02:20	58.6	58.6	58.6	82	53.1	4	13	270	0.00	29.566 
02:25	58.7	58.7	58.7	82	53.2	3	9	248	0.00	29.565 
02:30	58.6	58.6	58.6	83	53.4	4	17	248	0.00	29.553 
02:35	58.4	58.4	58.4	83	53.3	4	12	248	0.00	29.552 
02:40	58.4	58.4	58.4	83	53.3	4	10	270	0.00	29.552 
02:45	58.4	58.4	58.4	84	53.6	4	10	248	0.00	29.549 
02:50	58.4	58.4	58.4	83	53.3	6	13	248	0.00	29.550 
02:55	58.4	58.4	58.4	83	53.3	4	12	248	0.00	29.549 
03:00	58.4	58.4	58.4	83	53.3	5	14	248	0.00	29.552 
03:05	58.3	58.3	58.3	83	53.2	4	9	270	0.00	29.554 
03:10	58.3	58.3	58.3	84	53.5	5	12	248	0.00	29.553 
03:15	58.0	58.0	58.0	85	53.5	5	13	248	0.00	29.553 
03:20	57.6	57.6	57.6	86	53.4	6	16	270	0.01	29.555 
03:25	57.3	57.3	57.3	87	53.5	5	14	270	0.00	29.555 
03:30	57.0	57.0	57.0	88	53.5	4	10	248	0.00	29.557 
03:35	56.7	56.7	56.7	89	53.5	6	15	270	0.00	29.556 
03:40	56.7	56.7	56.7	89	53.5	5	13	248	0.00	29.557 
03:45	56.6	56.6	56.6	89	53.4	5	18	270	0.00	29.556 
03:50	56.6	56.6	56.6	89	53.4	6	16	248	0.00	29.562 
03:55	56.6	56.6	56.6	89	53.4	7	19	248	0.00	29.565 
04:00	56.7	56.7	56.7	88	53.2	8	16	270	0.00	29.570 
04:05	56.6	56.6	56.6	89	53.4	5	13	248	0.00	29.572 
04:10	56.5	56.5	56.5	89	53.3	6	13	248	0.00	29.573 
04:15	56.2	56.2	56.2	91	53.6	6	16	248	0.01	29.582 
04:20	56.0	56.0	56.0	91	53.4	7	15	248	0.00	29.583 
04:25	56.0	56.0	56.0	92	53.7	6	13	248	0.00	29.587 
04:30	55.9	55.9	55.9	92	53.6	5	16	248	0.00	29.587 
04:35	55.9	55.9	55.9	92	53.6	4	12	270	0.00	29.588 
04:40	55.9	55.9	55.9	92	53.6	5	11	248	0.00	29.588 
04:45	56.0	56.0	56.0	92	53.7	5	13	248	0.00	29.588 
04:50	56.0	56.0	56.0	91	53.4	6	14	270	0.00	29.585 
04:55	56.2	56.2	56.2	91	53.6	5	13	248	0.00	29.589 
05:00	56.5	56.5	56.5	90	53.6	5	12	248	0.00	29.588 
05:05	56.5	56.5	56.5	89	53.3	4	10	248	0.00	29.584 
05:10	56.6	56.6	56.6	89	53.4	4	11	248	0.00	29.584 
05:15	56.6	56.6	56.6	89	53.4	4	11	248	0.00	29.587 
05:20	56.6	56.6	56.6	89	53.4	4	9	248	0.00	29.587 
05:25	56.7	56.7	56.7	88	53.2	6	14	248	0.00	29.587 
05:30	56.9	56.9	56.9	88	53.4	6	13	270	0.00	29.589 
05:35	56.9	56.9	56.9	88	53.4	5	14	248	0.00	29.593 
05:40	56.9	56.9	56.9	88	53.4	4	11	270	0.00	29.598 
05:45	55.7	55.7	55.7	84	50.9	7	17	270	0.00	29.613 
05:50	54.4	54.4	54.4	83	49.3	7	16	270	0.00	29.620 
05:55	53.2	53.2	53.2	83	48.2	7	17	270	0.00	29.627 
06:00	52.5	52.5	52.5	84	47.8	7	18	270	0.00	29.634 
06:05	51.7	51.7	51.7	84	47.0	7	15	270	0.00	29.642 
06:10	51.3	51.3	51.3	84	46.6	7	17	270	0.00	29.644 
06:15	51.1	51.1	51.1	83	46.1	8	21	270	0.00	29.652 
06:20	50.8	50.8	50.8	84	46.1	5	11	270	0.00	29.648 
06:25	50.5	50.5	50.5	84	45.8	6	14	270	0.00	29.657 
06:30	50.1	50.1	50.1	85	45.8	6	15	270	0.00	29.670 
06:35	49.6	48.4	49.6	85	45.3	4	10	270	0.00	29.673 
06:40	49.2	47.3	49.2	86	45.2	5	12	270	0.00	29.674 
06:45	48.9	47.6	48.9	86	44.9	4	9	270	0.00	29.677 
06:50	48.3	46.2	48.3	86	44.3	5	10	270	0.00	29.685 
06:55	47.7	44.9	47.7	85	43.4	6	16	270	0.00	29.691 
07:00	47.4	44.1	47.4	84	42.8	7	15	270	0.00	29.698 
07:05	46.7	43.2	46.7	85	42.4	7	15	270	0.00	29.710 
07:10	46.0	42.4	46.0	84	41.4	7	15	270	0.00	29.720 
07:15	45.5	42.3	45.5	85	41.3	6	12	270	0.00	29.725 
07:20	45.2	41.4	45.2	85	41.0	7	14	270	0.00	29.728 
07:25	44.8	40.9	44.8	84	40.3	7	15	270	0.00	29.735 
07:30	44.6	40.2	44.6	84	40.1	8	19	270	0.00	29.738 
07:35	44.5	41.8	44.5	84	40.0	5	14	270	0.00	29.744 
07:40	44.3	40.9	44.3	84	39.8	6	14	270	0.00	29.758 
07:45	44.2	39.7	44.2	84	39.7	8	21	270	0.00	29.759 
07:50	43.9	39.8	43.9	84	39.4	7	15	270	0.00	29.759 
07:55	43.8	39.7	43.8	84	39.3	7	18	270	0.00	29.762 
08:00	43.5	39.4	43.5	84	39.0	7	21	270	0.00	29.768 
08:05	43.3	39.1	43.3	84	38.8	7	14	270	0.00	29.774 
08:10	43.2	39.0	43.2	84	38.7	7	17	270	0.00	29.775 
08:15	43.1	37.5	43.1	83	38.3	10	21	270	0.00	29.774 
08:20	43.1	38.9	43.1	83	38.3	7	17	270	0.00	29.775 
08:25	43.1	40.1	43.1	83	38.3	5	13	270	0.00	29.771 
08:30	42.9	39.2	42.9	83	38.1	6	15	270	0.00	29.764 
08:35	42.8	39.1	42.8	83	38.0	6	14	270	0.00	29.774 
08:40	42.8	39.1	42.8	82	37.7	6	18	270	0.00	29.779 
08:45	42.8	39.1	42.8	81	37.4	6	12	270	0.00	29.793 
08:50	42.6	38.9	42.6	81	37.2	6	15	270	0.00	29.793 
08:55	42.5	38.2	42.5	81	37.1	7	18	270	0.00	29.801 
09:00	42.3	37.9	42.3	80	36.6	7	13	270	0.00	29.804 
09:05	42.2	39.1	42.2	81	36.8	5	11	270	0.00	29.806 
09:10	42.1	38.3	42.1	80	36.4	6	16	270	0.00	29.808 
09:15	42.1	37.7	42.1	80	36.4	7	15	270	0.00	29.810 
09:20	42.1	38.9	42.1	80	36.4	5	11	270	0.00	29.819 
09:25	42.1	39.7	42.1	81	36.7	4	10	270	0.00	29.823 
09:30	42.1	38.3	42.1	79	36.1	6	12	270	0.00	29.833 
09:35	42.1	37.7	42.1	79	36.1	7	14	270	0.00	29.839 
09:40	42.1	39.7	42.1	79	36.1	4	10	270	0.00	29.839 
09:45	41.9	38.7	41.9	79	35.9	5	13	270	0.00	29.838 
09:50	41.9	38.7	41.9	80	36.2	5	13	270	0.00	29.840 
09:55	41.9	39.5	41.9	80	36.2	4	7	270	0.00	29.838 
10:00	41.9	39.5	41.9	80	36.2	4	7	270	0.00	29.838 
10:05	41.9	39.5	41.9	81	36.5	4	15	270	0.00	29.839 
10:10	41.8	37.3	41.8	80	36.1	7	20	270	0.00	29.840 
10:15	41.6	37.7	41.6	81	36.2	6	13	270	0.00	29.847 
10:20	41.5	37.5	41.5	80	35.8	6	14	270	0.00	29.853 
10:25	41.5	38.2	41.5	81	36.1	5	12	270	0.00	29.857 
10:30	41.5	38.2	41.5	80	35.8	5	21	270	0.00	29.856 
10:35	41.5	37.5	41.5	79	35.5	6	14	270	0.00	29.866 
10:40	41.6	38.4	41.6	79	35.6	5	12	270	0.00	29.870 
10:45	41.6	37.1	41.6	78	35.3	7	16	270	0.00	29.873 
10:50	41.5	37.5	41.5	78	35.2	6	16	270	0.00	29.876 
10:55	41.3	38.8	41.3	78	35.0	4	9	270	0.00	29.884 
11:00	41.1	38.6	41.1	79	35.1	4	10	270	0.00	29.886 
11:05	41.1	38.6	41.1	80	35.4	4	9	270	0.00	29.887 
11:10	40.9	37.5	40.9	80	35.2	5	12	270	0.00	29.888 
11:15	40.9	38.4	40.9	81	35.5	4	9	270	0.00	29.888 
11:20	40.6	36.5	40.6	81	35.2	6	15	270	0.00	29.891 
11:25	40.5	37.1	40.5	82	35.4	5	11	270	0.00	29.900 
11:30	40.3	37.7	40.3	83	35.6	4	10	270	0.00	29.904 
11:35	40.3	36.8	40.3	83	35.6	5	12	270	0.00	29.905 
11:40	40.3	37.7	40.3	83	35.6	4	12	270	0.00	29.905 
11:45	40.5	37.1	40.5	81	35.1	5	11	270	0.00	29.908 
11:50	40.6	38.0	40.6	78	34.3	4	10	270	0.00	29.903 
11:55	40.8	40.8	40.8	78	34.5	3	10	270	0.00	29.911 
12:00	41.1	38.6	41.1	78	34.8	4	12	248	0.00	29.914 
12:05	41.1	37.1	41.1	75	33.8	6	15	270	0.00	29.918 
12:10	40.9	36.8	40.9	74	33.3	6	14	270	0.00	29.919 
12:15	40.9	37.5	40.9	75	33.6	5	11	270	0.00	29.920 
12:20	40.6	38.0	40.6	77	34.0	4	7	270	0.00	29.922 
12:25	40.3	37.7	40.3	78	34.0	4	11	270	0.00	29.922 
12:30	40.2	37.5	40.2	79	34.2	4	7	270	0.00	29.926 
12:35	40.1	37.4	40.1	79	34.1	4	7	270	0.00	29.926 
12:40	39.8	37.1	39.8	80	34.1	4	7	270	0.00	29.936 
12:45	39.9	37.2	39.9	80	34.2	4	13	270	0.00	29.940 
12:50	40.1	36.6	40.1	79	34.1	5	13	270	0.00	29.939 
12:55	39.9	35.6	39.9	79	33.9	6	12	270	0.00	29.946 
13:00	39.8	37.1	39.8	79	33.8	4	8	270	0.00	29.950 
13:05	39.8	37.1	39.8	79	33.8	4	9	270	0.00	29.952 
13:10	40.2	37.5	40.2	78	33.9	4	9	270	0.00	29.951 
13:15	40.6	38.0	40.6	78	34.3	4	13	270	0.00	29.951 
13:20	40.8	37.4	40.8	77	34.2	5	18	270	0.00	29.955 
13:25	41.1	38.6	41.1	76	34.1	4	10	292	0.00	29.960 
13:30	41.3	38.8	41.3	75	34.0	4	9	270	0.00	29.963 
13:35	41.3	41.3	41.3	74	33.6	3	8	270	0.00	29.964 
13:40	41.1	38.6	41.1	74	33.5	4	10	270	0.00	29.967 
13:45	40.6	37.2	40.6	74	33.0	5	13	270	0.00	29.973 
13:50	40.5	37.1	40.5	74	32.9	5	9	270	0.00	29.975 
13:55	40.3	36.1	40.3	73	32.3	6	13	270	0.00	29.982 
14:00	40.3	36.8	40.3	73	32.3	5	10	270	0.00	29.984 
14:05	40.2	36.0	40.2	73	32.2	6	12	270	0.00	29.985 
14:10	40.2	36.7	40.2	74	32.6	5	11	270	0.00	29.996 
14:15	40.2	40.2	40.2	75	32.9	3	8	270	0.00	29.998 
14:20	39.9	36.4	39.9	75	32.6	5	13	270	0.00	30.002 
14:25	39.6	36.9	39.6	75	32.3	4	12	270	0.00	30.008 
14:30	39.5	36.7	39.5	76	32.6	4	11	270	0.00	30.013 
14:35	39.3	35.7	39.3	77	32.7	5	11	270	0.00	30.017 
14:40	39.2	39.2	39.2	78	32.9	3	7	315	0.00	30.020 
14:45	39.5	39.5	39.5	78	33.2	3	6	315	0.00	30.023 
14:50	39.6	39.6	39.6	77	33.0	3	6	270	0.00	30.027 
14:55	39.5	36.7	39.5	79	33.5	4	12	270	0.00	30.030 
15:00	39.5	36.7	39.5	79	33.5	4	9	270	0.00	30.034 
15:05	39.5	35.9	39.5	77	32.9	5	12	270	0.00	30.039 
15:10	39.6	35.3	39.6	74	32.0	6	15	270	0.00	30.042 
15:15	40.1	37.4	40.1	74	32.5	4	9	270	0.00	30.048 
15:20	40.2	37.5	40.2	74	32.6	4	10	270	0.00	30.048 
15:25	40.3	37.7	40.3	73	32.3	4	9	270	0.00	30.051 
15:30	40.3	40.3	40.3	73	32.3	3	11	270	0.00	30.055 
15:35	39.9	37.2	39.9	72	31.6	4	13	270	0.00	30.060 
15:40	39.8	39.8	39.8	73	31.9	3	12	270	0.00	30.062 
15:45	39.8	39.8	39.8	72	31.5	3	10	292	0.00	30.063 
15:50	39.8	37.1	39.8	71	31.2	4	10	270	0.00	30.065 
15:55	39.8	37.1	39.8	71	31.2	4	9	292	0.00	30.068 
16:00	39.9	37.2	39.9	71	31.3	4	10	270	0.00	30.073 
16:05	40.1	40.1	40.1	71	31.5	3	7	292	0.00	30.074 
16:10	40.3	37.7	40.3	70	31.3	4	10	292	0.00	30.075 
16:15	40.9	40.9	40.9	69	31.5	3	6	270	0.00	30.077 
16:20	41.2	38.7	41.2	68	31.5	4	9	270	0.00	30.078 
16:25	40.6	40.6	40.6	67	30.5	3	7	292	0.00	30.080 
16:30	40.2	40.2	40.2	69	30.9	3	9	270	0.00	30.091 
16:35	39.5	39.5	39.5	72	31.2	3	10	338	0.00	30.095 
16:40	39.2	39.2	39.2	71	30.6	3	9	315	0.00	30.098 
16:45	39.2	39.2	39.2	71	30.6	3	7	338	0.00	30.100 
16:50	39.5	39.5	39.5	70	30.5	3	10	315	0.00	30.104 
16:55	39.5	39.5	39.5	71	30.9	2	7	270	0.00	30.109 
17:00	39.3	39.3	39.3	70	30.3	3	6	338	0.00	30.112 
17:05	38.9	38.9	38.9	69	29.6	3	8	315	0.00	30.119 
17:10	38.6	38.6	38.6	70	29.7	3	14	270	0.00	30.126 
17:15	38.8	38.8	38.8	69	29.5	3	7	292	0.00	30.129 
17:20	38.8	38.8	38.8	68	29.2	3	7	315	0.00	30.132 
17:25	38.8	38.8	38.8	68	29.2	2	5	315	0.00	30.134 
17:30	38.8	38.8	38.8	68	29.2	2	4	270	0.00	30.140 
17:35	38.8	38.8	38.8	68	29.2	2	7	270	0.00	30.144 
17:40	38.8	38.8	38.8	68	29.2	1	4	270	0.00	30.149 
17:45	38.6	38.6	38.6	67	28.6	3	7	338	0.00	30.151 
17:50	38.5	38.5	38.5	66	28.1	3	9	292	0.00	30.160 
17:55	38.3	38.3	38.3	65	27.6	3	6	315	0.00	30.162 
18:00	38.2	38.2	38.2	65	27.5	3	7	292	0.00	30.163 
18:05	38.2	38.2	38.2	64	27.1	3	8	315	0.00	30.171 
18:10	38.2	38.2	38.2	63	26.7	3	9	270	0.00	30.171 
18:15	38.2	38.2	38.2	63	26.7	3	7	270	0.00	30.173 
18:20	38.2	38.2	38.2	63	26.7	2	6	270	0.00	30.176 
18:25	38.0	38.0	38.0	64	26.9	3	9	315	0.00	30.182 
18:30	38.0	38.0	38.0	65	27.3	2	6	270	0.00	30.185 
18:35	37.9	37.9	37.9	65	27.2	2	7	315	0.00	30.187 
18:40	37.9	37.9	37.9	65	27.2	2	6	338	0.00	30.195 
18:45	37.8	37.8	37.8	63	26.4	2	6	338	0.00	30.200 
18:50	37.8	37.8	37.8	63	26.4	2	7	338	0.00	30.200 
18:55	37.6	37.6	37.6	64	26.5	2	8	292	0.00	30.201 
19:00	37.5	37.5	37.5	64	26.4	1	6	315	0.00	30.202 
19:05	37.3	37.3	37.3	64	26.3	2	10	292	0.00	30.205 
19:10	37.3	37.3	37.3	64	26.3	1	3	292	0.00	30.210 
19:15	37.3	37.3	37.3	64	26.3	1	6	292	0.00	30.217 
19:20	37.3	37.3	37.3	65	26.6	1	3	315	0.00	30.218 
19:25	37.3	37.3	37.3	65	26.6	1	3	338	0.00	30.219 
19:30	37.3	37.3	37.3	65	26.6	2	6	315	0.00	30.222 
19:35	37.3	37.3	37.3	65	26.6	2	5	292	0.00	30.228 
19:40	37.3	37.3	37.3	63	25.9	3	10	315	0.00	30.231 
19:45	37.2	37.2	37.2	62	25.4	3	10	292	0.00	30.235 
19:50	37.2	37.2	37.2	62	25.4	3	5	315	0.00	30.236 
19:55	37.0	37.0	37.0	63	25.6	2	9	338	0.00	30.242 
20:00	37.0	37.0	37.0	64	26.0	2	5	315	0.00	30.246 
20:05	37.0	37.0	37.0	65	26.3	2	5	315	0.00	30.252 
20:10	36.9	36.9	36.9	65	26.3	1	9	292	0.00	30.255 
20:15	36.9	36.9	36.9	62	25.1	2	8	315	0.00	30.258 
20:20	36.8	36.8	36.8	61	24.6	2	9	338	0.00	30.263 
20:25	36.8	36.8	36.8	60	24.2	2	10	270	0.00	30.267 
20:30	36.6	36.6	36.6	60	24.0	1	5	315	0.00	30.269 
20:35	36.5	36.5	36.5	61	24.3	1	6	270	0.00	30.270 
20:40	36.5	36.5	36.5	61	24.3	2	4	338	0.00	30.272 
20:45	36.5	36.5	36.5	60	24.0	2	5	270	0.00	30.278 
20:50	36.5	36.5	36.5	60	24.0	3	10	270	0.00	30.280 
20:55	36.3	36.3	36.3	60	23.8	2	6	315	0.00	30.284 
21:00	36.2	36.2	36.2	61	24.1	1	3	292	0.00	30.286 
21:05	35.9	35.9	35.9	62	24.2	1	4	270	0.00	30.286 
21:10	35.8	35.8	35.8	63	24.5	1	3	270	0.00	30.288 
21:15	35.8	35.8	35.8	63	24.5	2	6	292	0.00	30.289 
21:20	35.8	35.8	35.8	64	24.8	2	6	270	0.00	30.291 
21:25	35.5	35.5	35.5	64	24.5	1	4	270	0.00	30.294 
21:30	35.5	35.5	35.5	65	24.9	1	5	0	0.00	30.298 
21:35	35.2	35.2	35.2	66	25.0	1	4	270	0.00	30.301 
21:40	35.0	35.0	35.0	67	25.2	1	5	292	0.00	30.302 
21:45	35.0	35.0	35.0	67	25.2	1	6	338	0.00	30.303 
21:50	34.9	34.9	34.9	68	25.4	1	4	315	0.00	30.305 
21:55	34.7	34.7	34.7	68	25.2	1	4	270	0.00	30.307 
22:00	34.6	34.6	34.6	69	25.5	1	4	270	0.00	30.310 
22:05	34.3	34.3	34.3	70	25.5	1	3	270	0.00	30.316 
22:10	34.3	34.3	34.3	70	25.5	1	3	338	0.00	30.316 
22:15	34.3	34.3	34.3	70	25.5	1	4	270	0.00	30.318 
22:20	34.1	34.1	34.1	71	25.7	0	1	270	0.00	30.320 
22:25	33.8	33.8	33.8	71	25.4	0	1	270	0.00	30.323 
22:30	33.5	33.5	33.5	72	25.5	0	2	270	0.00	30.325 
22:35	33.4	33.4	33.4	73	25.7	0	1	270	0.00	30.327 
22:40	33.2	33.2	33.2	73	25.5	0	1	270	0.00	30.330 
22:45	33.2	33.2	33.2	74	25.8	0	2	0	0.00	30.332 
22:50	33.1	33.1	33.1	74	25.7	0	2	338	0.00	30.331 
22:55	33.1	33.1	33.1	74	25.7	0	4	338	0.00	30.333 
23:00	32.9	32.9	32.9	75	25.9	0	1	225	0.00	30.334 
23:05	32.8	32.8	32.8	75	25.8	0	1	225	0.00	30.334 
23:10	32.7	32.7	32.7	75	25.7	0	1	225	0.00	30.334 
23:15	32.4	32.4	32.4	76	25.7	0	0	---	0.00	30.334 
23:20	32.2	32.2	32.2	76	25.5	0	1	225	0.00	30.336 
23:25	32.1	32.1	32.1	77	25.7	0	0	---	0.00	30.336 
23:30	31.9	31.9	31.9	77	25.5	0	1	225	0.00	30.336 
23:35	31.8	31.8	31.8	77	25.4	0	0	---	0.00	30.337 
23:40	31.5	31.5	31.5	78	25.4	0	1	225	0.00	30.337 
23:45	31.5	31.5	31.5	78	25.4	0	0	---	0.00	30.340 
23:50	31.3	31.3	31.3	78	25.3	0	0	---	0.00	30.343 
23:55	31.2	31.2	31.2	78	25.2	0	0	---	0.00	30.347 

CoCoRaHS
IN-AL-39
A2 Web Hosting
Creative Commons License
GoDaddy
Look for:

loaded 2017-10-19 19:59:47 • last modified 2010-11-18 10:43:29
Privacy PolicyDisclaimer
• wx.awcolley.com is powered by PmWiki v.2002016 •
• all content (unless otherwise noted) © 2017 A W Colley